Terminal Aerodrome Forecast
Issued by NWS Newport/Morehead City, NC

Home | Current Version | Previous Version | Text Only | Print | Product List | Glossary Off
Versions: 1 2 3 4 5 6 7 8 9 10 11 12 13 14 15 16

000
FTUS42 KMHX 241239 AAA
TAFEWN
TAF AMD
KEWN 241239Z 2413/2512 10007KT P6SM SCT100
     FM250600 00000KT 3SM BR SCT080
      TEMPO 2506/2509 1SM BR SCT005
     FM250900 00000KT 1SM BR OVC005=

USA.gov is the U.S. government's official web portal to all federal, state and local government web resources and services.